Time;durP1;ratioP1;P1;durP2;ratioP2;P2;SDS_P1;SDS_P2;PMS_P1;PMS_P2;Temp;Humidity;BMP_temperature;BMP_pressure;BME280_temperature;BME280_humidity;BME280_pressure;Samples;Min_cycle;Max_cycle;Signal;HPM_P1;HPM_P2
2023/09/16 00:00:56;;;;;;;3.97;3.58;;;19.80;99.90;;;;;;5051500;28;20060;-60
2023/09/16 00:03:22;;;;;;;4.20;3.75;;;19.80;99.90;;;;;;5049824;28;20725;-60
2023/09/16 00:05:47;;;;;;;4.28;3.30;;;19.70;99.90;;;;;;5051464;28;20075;-60
2023/09/16 00:08:13;;;;;;;4.68;3.50;;;19.80;99.90;;;;;;5051208;28;20070;-60
2023/09/16 00:10:40;;;;;;;6.20;3.80;;;19.70;99.90;;;;;;5049842;28;20144;-60
2023/09/16 00:13:06;;;;;;;5.15;3.80;;;19.70;99.90;;;;;;5050683;28;20021;-60
2023/09/16 00:15:31;;;;;;;5.70;4.03;;;19.60;99.90;;;;;;5051037;28;20032;-61
2023/09/16 00:17:57;;;;;;;6.10;3.78;;;19.60;99.90;;;;;;5050076;28;20498;-60
2023/09/16 00:20:25;;;;;;;4.95;3.80;;;19.70;99.90;;;;;;5051042;28;20033;-60
2023/09/16 00:22:51;;;;;;;4.70;3.83;;;19.70;99.90;;;;;;5051299;28;20071;-60
2023/09/16 00:25:17;;;;;;;4.50;3.40;;;19.60;99.90;;;;;;5050587;28;20056;-60
2023/09/16 00:27:43;;;;;;;3.63;3.30;;;19.70;99.90;;;;;;5050362;28;20044;-60
2023/09/16 00:30:09;;;;;;;5.10;3.95;;;19.70;99.90;;;;;;5050356;28;20029;-61
2023/09/16 00:32:35;;;;;;;6.53;3.75;;;19.60;99.90;;;;;;5050135;28;20037;-60
2023/09/16 00:35:03;;;;;;;4.50;3.70;;;19.80;99.90;;;;;;5049718;28;20060;-60
2023/09/16 00:37:29;;;;;;;6.10;3.90;;;19.90;99.90;;;;;;5050685;28;20033;-59
2023/09/16 00:39:55;;;;;;;3.70;3.40;;;20.00;99.90;;;;;;5050025;28;20031;-60
2023/09/16 00:42:20;;;;;;;4.28;3.60;;;20.10;99.90;;;;;;5046037;28;20413;-61
2023/09/16 00:44:46;;;;;;;6.28;3.63;;;20.20;99.90;;;;;;5030896;28;20083;-60
2023/09/16 00:47:13;;;;;;;5.40;3.75;;;20.20;99.90;;;;;;5030807;28;20080;-61
2023/09/16 00:49:39;;;;;;;4.18;3.72;;;20.20;99.90;;;;;;5029302;28;20100;-60
2023/09/16 00:52:05;;;;;;;5.25;3.75;;;20.20;99.90;;;;;;5030379;28;20033;-60
2023/09/16 00:54:31;;;;;;;4.88;3.78;;;20.20;99.90;;;;;;5029672;28;20105;-60
2023/09/16 00:56:59;;;;;;;5.22;4.55;;;20.20;99.90;;;;;;5036430;28;20033;-60
2023/09/16 00:59:26;;;;;;;5.75;4.57;;;20.20;99.90;;;;;;5053265;28;20502;-58
2023/09/16 01:01:54;;;;;;;9.38;5.55;;;20.20;99.90;;;;;;5053708;28;20431;-60
2023/09/16 01:04:21;;;;;;;6.13;5.53;;;20.20;99.90;;;;;;5052021;28;20021;-60
2023/09/16 01:06:51;;;;;;;5.75;5.00;;;20.20;99.90;;;;;;5053269;28;20035;-60
2023/09/16 01:09:19;;;;;;;7.90;5.10;;;20.10;99.90;;;;;;5053771;28;20312;-60
2023/09/16 01:11:45;;;;;;;4.85;4.30;;;20.00;99.90;;;;;;5053726;28;20055;-60
2023/09/16 01:14:11;;;;;;;4.88;4.40;;;19.80;99.90;;;;;;5053940;28;20029;-61
2023/09/16 01:16:40;;;;;;;5.18;4.40;;;19.80;99.90;;;;;;5053513;28;20028;-60
2023/09/16 01:19:23;;;;;;;4.78;4.05;;;19.70;99.90;;;;;;5053586;28;20371;-60
2023/09/16 01:21:49;;;;;;;4.80;4.10;;;19.70;99.90;;;;;;5053274;28;20021;-60
2023/09/16 01:24:24;;;;;;;5.93;4.43;;;19.60;99.90;;;;;;5053474;28;20036;-61
2023/09/16 01:26:50;;;;;;;7.97;4.25;;;19.60;99.90;;;;;;5053760;28;20041;-60
2023/09/16 01:29:18;;;;;;;5.78;4.28;;;19.50;99.90;;;;;;5053809;28;20044;-60
2023/09/16 01:31:45;;;;;;;8.43;4.53;;;19.50;99.90;;;;;;5042456;28;20049;-61
2023/09/16 01:34:41;;;;;;;4.97;4.30;;;19.50;99.90;;;;;;5033840;28;20029;-61
2023/09/16 01:37:15;;;;;;;4.68;4.20;;;19.40;99.90;;;;;;5033868;28;20405;-60
2023/09/16 01:39:42;;;;;;;;;;;19.40;99.90;;;;;;5033773;28;20450;-60
2023/09/16 01:42:08;;;;;;;6.10;4.40;;;19.40;99.90;;;;;;5033797;28;19995;-61
2023/09/16 01:44:34;;;;;;;7.43;4.72;;;19.40;99.90;;;;;;5033782;28;20026;-61
2023/09/16 01:47:00;;;;;;;7.28;4.63;;;19.40;99.90;;;;;;5049163;28;20397;-61
2023/09/16 01:49:25;;;;;;;6.95;4.32;;;19.40;99.90;;;;;;5053260;28;20033;-60
2023/09/16 01:51:51;;;;;;;6.70;4.30;;;19.30;99.90;;;;;;5053269;28;20455;-60
2023/09/16 01:54:17;;;;;;;6.70;4.40;;;19.30;99.90;;;;;;5052925;28;20124;-61
2023/09/16 01:56:45;;;;;;;7.55;4.45;;;19.50;99.90;;;;;;5050428;28;20029;-60
2023/09/16 01:59:11;;;;;;;6.00;4.22;;;19.50;99.90;;;;;;5049966;28;20017;-60
2023/09/16 02:01:36;;;;;;;5.88;4.55;;;19.70;99.90;;;;;;5052059;28;20771;-60
2023/09/16 02:04:02;;;;;;;4.53;4.00;;;19.70;99.90;;;;;;5053578;28;20032;-60
2023/09/16 02:06:28;;;;;;;5.13;4.25;;;19.80;99.90;;;;;;5052949;28;20029;-60
2023/09/16 02:08:53;;;;;;;5.82;4.13;;;19.80;99.90;;;;;;5052239;28;20457;-60
2023/09/16 02:11:19;;;;;;;7.10;4.20;;;19.80;99.90;;;;;;5053256;28;20414;-60
2023/09/16 02:13:44;;;;;;;5.50;4.03;;;19.80;99.90;;;;;;5053155;28;20560;-60
2023/09/16 02:16:11;;;;;;;5.85;4.20;;;19.80;99.90;;;;;;5051732;28;20072;-61
2023/09/16 02:18:36;;;;;;;5.05;4.40;;;19.80;99.90;;;;;;5053332;28;20044;-60
2023/09/16 02:21:02;;;;;;;5.38;4.07;;;19.80;99.90;;;;;;5052920;28;20525;-60
2023/09/16 02:23:28;;;;;;;6.70;4.15;;;19.80;99.90;;;;;;5052346;28;20062;-61
2023/09/16 02:25:53;;;;;;;5.50;4.70;;;19.80;99.90;;;;;;5051952;28;20029;-59
2023/09/16 02:28:19;;;;;;;6.53;4.13;;;19.70;99.90;;;;;;5052394;28;20052;-60
2023/09/16 02:30:48;;;;;;;6.18;4.45;;;19.70;99.90;;;;;;5034430;28;20498;-61
2023/09/16 02:33:14;;;;;;;6.03;4.20;;;19.50;99.90;;;;;;5032750;28;20496;-60
2023/09/16 02:35:39;;;;;;;8.18;4.60;;;19.40;99.90;;;;;;5032613;28;20167;-60
2023/09/16 02:38:05;;;;;;;6.80;4.82;;;19.30;99.90;;;;;;5032397;28;20045;-60
2023/09/16 02:40:31;;;;;;;5.82;4.55;;;19.20;99.90;;;;;;5032841;28;20104;-60
2023/09/16 02:42:56;;;;;;;6.13;4.78;;;19.20;99.90;;;;;;5032491;28;20115;-61
2023/09/16 02:45:22;;;;;;;6.35;4.47;;;19.10;99.90;;;;;;5049771;28;20044;-61
2023/09/16 02:47:48;;;;;;;5.53;4.60;;;19.10;99.90;;;;;;5052719;28;20033;-61
2023/09/16 02:50:13;;;;;;;6.97;4.45;;;19.00;99.90;;;;;;5052100;28;20044;-60
2023/09/16 02:52:39;;;;;;;6.70;5.18;;;19.00;99.90;;;;;;5052204;28;20470;-60
2023/09/16 02:55:05;;;;;;;6.85;4.75;;;19.00;99.90;;;;;;5052415;28;20037;-60
2023/09/16 02:57:30;;;;;;;7.97;4.80;;;18.90;99.90;;;;;;5052181;28;20542;-59
2023/09/16 02:59:56;;;;;;;6.70;4.55;;;18.90;99.90;;;;;;5036069;28;20113;-61
2023/09/16 03:02:22;;;;;;;6.88;4.90;;;18.90;99.90;;;;;;5032452;28;20057;-60
2023/09/16 03:04:47;;;;;;;5.40;4.90;;;18.80;99.90;;;;;;5035953;28;20509;-60
2023/09/16 03:07:13;;;;;;;5.97;4.80;;;18.80;99.90;;;;;;5051935;28;20053;-61
2023/09/16 03:09:39;;;;;;;4.75;4.35;;;18.80;99.90;;;;;;5051878;28;20052;-60
2023/09/16 03:12:04;;;;;;;7.60;4.70;;;18.80;99.90;;;;;;5052284;28;20528;-60
2023/09/16 03:14:30;;;;;;;5.70;4.97;;;18.80;99.90;;;;;;5035302;28;20022;-60
2023/09/16 03:16:56;;;;;;;7.90;4.57;;;18.70;99.90;;;;;;5031814;28;20026;-60
2023/09/16 03:19:22;;;;;;;6.75;4.63;;;18.90;99.90;;;;;;5031445;28;20076;-59
2023/09/16 03:21:47;;;;;;;6.32;4.70;;;19.00;99.90;;;;;;5048186;28;20024;-60
2023/09/16 03:24:13;;;;;;;6.53;4.97;;;19.10;99.90;;;;;;5038902;28;20100;-59
2023/09/16 03:26:39;;;;;;;5.53;4.43;;;19.20;99.90;;;;;;5031921;28;20082;-61
2023/09/16 03:29:04;;;;;;;4.70;4.18;;;19.20;99.90;;;;;;5031808;28;20108;-60
2023/09/16 03:31:30;;;;;;;6.38;4.25;;;19.10;99.90;;;;;;5032011;28;20041;-60
2023/09/16 03:33:56;;;;;;;7.93;4.60;;;19.20;99.90;;;;;;5031380;28;20414;-60
2023/09/16 03:36:22;;;;;;;5.80;4.10;;;19.20;99.90;;;;;;5031544;28;20029;-61
2023/09/16 03:38:49;;;;;;;5.40;4.50;;;19.30;99.90;;;;;;5031597;28;20406;-60
2023/09/16 03:41:16;;;;;;;7.35;4.65;;;19.40;99.90;;;;;;5031641;28;20426;-60
2023/09/16 03:43:42;;;;;;;10.02;4.82;;;19.20;99.90;;;;;;5031447;28;20112;-61
2023/09/16 03:46:08;;;;;;;7.00;4.43;;;19.20;99.90;;;;;;5040427;28;20024;-60
2023/09/16 03:48:34;;;;;;;8.02;4.28;;;19.30;99.90;;;;;;5051164;28;20017;-60
2023/09/16 03:50:59;;;;;;;6.80;4.72;;;19.20;99.90;;;;;;5051224;28;20409;-61
2023/09/16 03:53:25;;;;;;;6.22;4.50;;;19.10;99.90;;;;;;5051538;28;20029;-60
2023/09/16 03:55:54;;;;;;;6.32;4.63;;;19.00;99.90;;;;;;5051271;28;20021;-60
2023/09/16 03:58:20;;;;;;;5.30;4.50;;;18.90;99.90;;;;;;5051234;28;20110;-59
2023/09/16 04:00:47;;;;;;;6.05;4.65;;;18.80;99.90;;;;;;5049089;28;20462;-60
2023/09/16 04:03:13;;;;;;;7.03;4.68;;;18.70;99.90;;;;;;5050872;28;20028;-60
2023/09/16 04:05:39;;;;;;;8.00;4.93;;;18.60;99.90;;;;;;5051021;28;20033;-60
2023/09/16 04:08:04;;;;;;;7.63;5.75;;;18.60;99.90;;;;;;5045364;28;20329;-60
2023/09/16 04:10:30;;;;;;;7.05;5.10;;;18.50;99.90;;;;;;5031184;28;20025;-60
2023/09/16 04:12:56;;;;;;;9.40;5.50;;;18.40;99.90;;;;;;5031224;28;20030;-61
2023/09/16 04:15:22;;;;;;;8.60;5.03;;;18.40;99.90;;;;;;5031366;28;20144;-60
2023/09/16 04:17:49;;;;;;;6.13;4.60;;;18.40;99.90;;;;;;5030910;28;20087;-61
2023/09/16 04:20:15;;;;;;;7.18;4.75;;;18.30;99.90;;;;;;5034734;28;20025;-60
2023/09/16 04:22:41;;;;;;;6.25;4.78;;;18.30;99.90;;;;;;5049990;28;20029;-60
2023/09/16 04:25:07;;;;;;;6.03;4.88;;;18.30;99.90;;;;;;5051399;28;20033;-59
2023/09/16 04:27:32;;;;;;;5.97;5.10;;;18.30;99.90;;;;;;5050772;28;20041;-60
2023/09/16 04:29:58;;;;;;;6.63;4.90;;;18.30;99.90;;;;;;5050971;28;20478;-60
2023/09/16 04:32:24;;;;;;;7.40;4.95;;;18.30;99.90;;;;;;5054526;28;20582;-61
2023/09/16 04:34:49;;;;;;;13.07;6.05;;;18.30;99.90;;;;;;5054948;28;20104;-60
2023/09/16 04:37:16;;;;;;;7.07;5.10;;;18.30;99.90;;;;;;5053710;28;20520;-61
2023/09/16 04:39:42;;;;;;;7.13;5.07;;;18.30;99.90;;;;;;5054565;28;20044;-60
2023/09/16 04:42:08;;;;;;;6.28;4.75;;;18.40;99.90;;;;;;5053867;28;20036;-61
2023/09/16 04:44:38;;;;;;;6.50;4.93;;;18.50;99.90;;;;;;5054664;28;20025;-60
2023/09/16 04:47:07;;;;;;;7.95;4.93;;;18.60;99.90;;;;;;5054502;28;20482;-60
2023/09/16 04:49:33;;;;;;;8.57;4.93;;;18.70;99.90;;;;;;5054498;28;20017;-60
2023/09/16 04:51:58;;;;;;;9.27;4.80;;;18.70;99.90;;;;;;5047285;28;20075;-60
2023/09/16 04:54:24;;;;;;;6.70;4.30;;;18.70;99.90;;;;;;5034713;28;20794;-60
2023/09/16 04:56:50;;;;;;;6.40;4.68;;;18.70;99.90;;;;;;5062645;28;20623;-60
2023/09/16 04:59:15;;;;;;;7.40;4.95;;;18.80;99.90;;;;;;5072640;28;20425;-61
2023/09/16 05:01:41;;;;;;;7.00;4.70;;;18.80;99.90;;;;;;5053852;28;20124;-60
2023/09/16 05:04:07;;;;;;;7.82;4.60;;;18.80;99.90;;;;;;5054400;28;20017;-60
2023/09/16 05:06:32;;;;;;;8.32;4.82;;;18.90;99.90;;;;;;5054326;28;20099;-59
2023/09/16 05:08:59;;;;;;;8.77;5.22;;;18.80;99.90;;;;;;5046950;28;20017;-59
2023/09/16 05:11:25;;;;;;;6.03;4.40;;;18.70;99.90;;;;;;5034518;28;20045;-60
2023/09/16 05:13:51;;;;;;;6.63;4.40;;;18.60;99.90;;;;;;5034127;28;20076;-60
2023/09/16 05:16:16;;;;;;;5.95;4.78;;;18.50;99.90;;;;;;5033756;28;20033;-60
2023/09/16 05:18:43;;;;;;;5.30;4.80;;;18.40;99.90;;;;;;5040992;28;20033;-59
2023/09/16 05:21:09;;;;;;;6.22;4.97;;;18.40;99.90;;;;;;5054329;28;20017;-60
2023/09/16 05:23:34;;;;;;;6.57;4.90;;;18.30;99.90;;;;;;5054042;28;20036;-60
2023/09/16 05:26:00;;;;;;;5.80;4.97;;;18.30;99.90;;;;;;5060918;28;20052;-60
2023/09/16 05:28:27;;;;;;;6.97;5.00;;;18.30;99.90;;;;;;5037387;28;20041;-60
2023/09/16 05:30:56;;;;;;;7.28;5.13;;;18.20;99.90;;;;;;5037497;28;20040;-60
2023/09/16 05:33:25;;;;;;;7.22;5.20;;;18.10;99.90;;;;;;5052182;28;20493;-61
2023/09/16 05:35:51;;;;;;;6.80;5.35;;;18.20;99.90;;;;;;5053932;28;20025;-60
2023/09/16 05:38:17;;;;;;;8.73;5.70;;;18.10;99.90;;;;;;5053673;28;20067;-60
2023/09/16 05:40:43;;;;;;;7.57;5.03;;;18.10;99.90;;;;;;5053755;28;20048;-59
2023/09/16 05:43:09;;;;;;;5.50;5.00;;;18.10;99.90;;;;;;5052255;28;20369;-60
2023/09/16 05:45:36;;;;;;;8.70;5.25;;;18.10;99.90;;;;;;5053458;28;20036;-60
2023/09/16 05:48:03;;;;;;;8.27;5.30;;;18.10;99.90;;;;;;5053821;28;20485;-60
2023/09/16 05:50:29;;;;;;;10.05;5.60;;;18.10;99.90;;;;;;5050745;28;20041;-61
2023/09/16 05:52:55;;;;;;;6.57;5.40;;;18.10;99.90;;;;;;5052217;28;20041;-60
2023/09/16 05:55:21;;;;;;;6.82;5.47;;;18.20;99.90;;;;;;5053444;28;20043;-61
2023/09/16 05:57:46;;;;;;;6.68;4.75;;;18.20;99.90;;;;;;5053227;28;20528;-60
2023/09/16 06:00:12;;;;;;;9.57;4.97;;;18.40;99.90;;;;;;5052800;28;20036;-60
2023/09/16 06:02:39;;;;;;;6.57;5.22;;;18.80;99.90;;;;;;5053271;28;20021;-60
2023/09/16 06:05:07;;;;;;;8.48;4.80;;;19.30;99.90;;;;;;5046677;28;20083;-61
2023/09/16 06:07:34;;;;;;;5.30;4.25;;;19.50;99.90;;;;;;5033629;28;20026;-61
2023/09/16 06:09:59;;;;;;;6.95;4.30;;;19.60;99.90;;;;;;5033091;28;20021;-60
2023/09/16 06:12:25;;;;;;;5.97;4.10;;;19.70;99.90;;;;;;5049209;28;20087;-61
2023/09/16 06:14:51;;;;;;;7.35;4.03;;;19.80;99.90;;;;;;5032585;28;20052;-60
2023/09/16 06:17:19;;;;;;;6.82;4.28;;;19.80;99.90;;;;;;5033102;28;20034;-61
2023/09/16 06:19:45;;;;;;;4.43;4.00;;;19.80;99.90;;;;;;5032995;28;20033;-60
2023/09/16 06:22:13;;;;;;;5.85;4.10;;;19.90;99.90;;;;;;5051069;28;20035;-61
2023/09/16 06:24:39;;;;;;;6.00;4.22;;;19.80;99.90;;;;;;5052970;28;20025;-61
2023/09/16 06:27:05;;;;;;;4.85;4.10;;;19.80;99.90;;;;;;5051960;28;20387;-61
2023/09/16 06:29:30;;;;;;;6.18;4.20;;;19.80;99.90;;;;;;5052451;28;20465;-60
2023/09/16 06:31:56;;;;;;;5.53;4.35;;;19.80;99.90;;;;;;5051369;28;20041;-60
2023/09/16 06:34:22;;;;;;;4.50;4.05;;;19.70;99.90;;;;;;5052688;28;20219;-60
2023/09/16 06:36:47;;;;;;;4.10;3.70;;;19.70;99.90;;;;;;5052580;28;20494;-60
2023/09/16 06:39:13;;;;;;;7.38;4.07;;;19.60;99.90;;;;;;5051846;28;20036;-61
2023/09/16 06:41:39;;;;;;;5.35;4.53;;;19.60;99.90;;;;;;5049676;28;20170;-60
2023/09/16 06:44:04;;;;;;;5.75;4.40;;;19.50;99.90;;;;;;5052126;28;20478;-59
2023/09/16 06:46:30;;;;;;;7.90;5.13;;;19.20;99.90;;;;;;5052601;28;20079;-60
2023/09/16 06:48:56;;;;;;;5.82;4.43;;;19.10;99.90;;;;;;5051898;28;20406;-61
2023/09/16 06:51:21;;;;;;;5.20;4.57;;;19.20;99.90;;;;;;5047324;28;20041;-61
2023/09/16 06:53:47;;;;;;;8.50;4.78;;;19.20;99.90;;;;;;5032335;28;20030;-60
2023/09/16 06:56:13;;;;;;;14.57;5.38;;;19.20;99.90;;;;;;5052159;28;20456;-61
2023/09/16 06:58:38;;;;;;;5.05;4.55;;;19.10;99.90;;;;;;5051796;28;20032;-60
2023/09/16 07:01:10;;;;;;;7.32;5.32;;;19.10;99.90;;;;;;5051123;28;20220;-61
2023/09/16 07:03:36;;;;;;;8.60;5.07;;;19.20;99.90;;;;;;5052346;28;20021;-60
2023/09/16 07:06:01;;;;;;;8.52;4.90;;;19.10;99.90;;;;;;5051654;28;20033;-60
2023/09/16 07:08:27;;;;;;;7.15;4.88;;;19.00;99.90;;;;;;5052036;28;20032;-61
2023/09/16 07:10:55;;;;;;;5.28;4.80;;;18.90;99.90;;;;;;5052258;28;20167;-60
2023/09/16 07:13:20;;;;;;;5.80;5.28;;;18.90;99.90;;;;;;5051566;28;20028;-60
2023/09/16 07:15:53;;;;;;;6.63;5.13;;;19.00;99.90;;;;;;5051935;28;20037;-61
2023/09/16 07:18:19;;;;;;;7.03;4.85;;;19.00;99.90;;;;;;5050643;28;20025;-61
2023/09/16 07:20:45;;;;;;;6.20;4.88;;;19.10;99.90;;;;;;5051737;28;20509;-60
2023/09/16 07:23:10;;;;;;;5.88;5.03;;;19.10;99.90;;;;;;5051766;28;20393;-61
2023/09/16 07:25:36;;;;;;;5.75;4.50;;;19.30;99.90;;;;;;5051743;28;20017;-61
2023/09/16 07:28:06;;;;;;;5.30;4.78;;;19.50;99.90;;;;;;5051389;28;20053;-61
2023/09/16 07:30:32;;;;;;;6.97;4.35;;;19.60;99.90;;;;;;5051584;28;20040;-60
2023/09/16 07:32:59;;;;;;;5.18;4.68;;;19.80;99.90;;;;;;5051479;28;20524;-61
2023/09/16 07:35:25;;;;;;;5.90;4.00;;;19.90;99.90;;;;;;5051379;28;20025;-60
2023/09/16 07:37:51;;;;;;;7.28;4.10;;;20.00;99.90;;;;;;5051743;28;20055;-61
2023/09/16 07:40:17;;;;;;;5.60;4.15;;;20.10;99.90;;;;;;5051219;28;20044;-61
2023/09/16 07:42:42;;;;;;;5.15;4.00;;;20.10;99.90;;;;;;5050070;28;20398;-60
2023/09/16 07:45:09;;;;;;;4.45;4.00;;;20.20;99.90;;;;;;5052019;28;20078;-60
2023/09/16 07:47:35;;;;;;;4.32;3.80;;;20.30;99.90;;;;;;5051440;28;20229;-60
2023/09/16 07:50:01;;;;;;;6.07;3.90;;;20.40;99.90;;;;;;5051310;28;20052;-61
2023/09/16 07:52:27;;;;;;;6.15;3.67;;;20.40;99.90;;;;;;5051659;28;20120;-61
2023/09/16 07:54:57;;;;;;;4.45;3.30;;;20.50;99.90;;;;;;5050903;28;20025;-61
2023/09/16 07:57:23;;;;;;;4.93;3.90;;;20.50;99.90;;;;;;5051190;28;20448;-61
2023/09/16 07:59:49;;;;;;;5.72;3.70;;;20.40;99.90;;;;;;5051205;28;20021;-60
2023/09/16 08:02:15;;;;;;;7.10;3.60;;;20.40;99.90;;;;;;5050999;28;20040;-60
2023/09/16 08:04:41;;;;;;;4.68;3.45;;;20.40;99.90;;;;;;5050542;28;20108;-60
2023/09/16 08:07:07;;;;;;;5.82;4.03;;;20.40;99.90;;;;;;5051035;28;20104;-60
2023/09/16 08:09:33;;;;;;;4.63;3.60;;;20.50;99.90;;;;;;5050687;28;20048;-61
2023/09/16 08:11:59;;;;;;;5.15;3.67;;;20.50;99.90;;;;;;5051403;28;20503;-61
2023/09/16 08:14:25;;;;;;;4.90;3.05;;;20.60;99.90;;;;;;5050728;28;20092;-61
2023/09/16 08:16:52;;;;;;;5.93;3.58;;;20.70;99.90;;;;;;5049098;28;20056;-60
2023/09/16 08:19:19;;;;;;;3.70;3.30;;;20.70;99.90;;;;;;5053070;28;20074;-60
2023/09/16 08:21:45;;;;;;;8.23;3.30;;;20.90;99.90;;;;;;5050372;28;20045;-60
2023/09/16 08:24:10;;;;;;;5.38;3.35;;;21.00;99.90;;;;;;5030553;28;20112;-61
2023/09/16 08:26:36;;;;;;;6.28;3.33;;;21.10;99.90;;;;;;5042981;28;20055;-60
2023/09/16 08:29:02;;;;;;;4.10;3.20;;;21.10;99.90;;;;;;5057859;28;20629;-61
2023/09/16 08:31:27;;;;;;;4.10;3.15;;;21.20;99.90;;;;;;5067975;28;20045;-61
2023/09/16 08:33:55;;;;;;;6.93;3.00;;;21.20;99.90;;;;;;5043216;28;20021;-61
2023/09/16 08:36:22;;;;;;;3.65;2.70;;;21.30;99.90;;;;;;5045783;28;20033;-61
2023/09/16 08:38:47;;;;;;;4.72;3.50;;;21.30;99.90;;;;;;5046925;28;20040;-60
2023/09/16 08:41:59;;;;;;;4.88;3.08;;;21.40;99.90;;;;;;5040691;28;20026;-60
2023/09/16 08:44:28;;;;;;;5.75;3.38;;;21.60;99.90;;;;;;5028246;28;20124;-61
2023/09/16 08:47:09;;;;;;;5.57;2.67;;;21.70;99.90;;;;;;5029522;28;20048;-61
2023/09/16 08:49:40;;;;;;;4.55;2.80;;;21.80;99.90;;;;;;5024764;28;20033;-61
2023/09/16 08:52:09;;;;;;;5.53;2.80;;;22.00;99.90;;;;;;5008983;28;20045;-61
2023/09/16 08:54:36;;;;;;;4.53;2.90;;;22.00;99.90;;;;;;5014203;28;20061;-61
2023/09/16 08:57:02;;;;;;;4.75;2.60;;;22.10;99.90;;;;;;5027203;28;20073;-60
2023/09/16 08:59:29;;;;;;;6.07;2.78;;;22.20;99.90;;;;;;5011393;28;20030;-61
2023/09/16 09:01:55;;;;;;;5.68;2.63;;;22.30;99.90;;;;;;5034179;28;20475;-60
2023/09/16 09:04:21;;;;;;;22.23;3.90;;;22.40;99.90;;;;;;5010063;28;20122;-61
2023/09/16 09:06:49;;;;;;;4.13;2.50;;;22.40;99.90;;;;;;5019773;28;20026;-61
2023/09/16 09:09:14;;;;;;;5.45;2.67;;;22.40;99.90;;;;;;5008319;28;20641;-61
2023/09/16 09:11:40;;;;;;;6.05;3.03;;;22.40;99.90;;;;;;5008831;28;20113;-61
2023/09/16 09:14:09;;;;;;;5.97;2.85;;;22.50;99.90;;;;;;5015860;28;20037;-61
2023/09/16 09:16:38;;;;;;;4.85;2.88;;;22.50;99.90;;;;;;5041214;28;20029;-61
2023/09/16 09:19:04;;;;;;;3.00;2.80;;;22.50;99.90;;;;;;5056909;28;20481;-61
2023/09/16 09:21:31;;;;;;;2.85;2.55;;;22.40;99.90;;;;;;5055424;28;20079;-59
2023/09/16 09:23:58;;;;;;;4.57;2.80;;;22.40;99.90;;;;;;5042267;28;20504;-59
2023/09/16 09:26:24;;;;;;;4.13;2.90;;;22.40;99.90;;;;;;5045641;28;20044;-60
2023/09/16 09:28:49;;;;;;;3.28;2.83;;;22.40;99.90;;;;;;5050151;28;20033;-61
2023/09/16 09:31:16;;;;;;;5.28;2.80;;;22.30;99.90;;;;;;5053678;28;20040;-61
2023/09/16 09:33:42;;;;;;;3.00;2.70;;;22.30;99.90;;;;;;5054175;28;20025;-60
2023/09/16 09:36:16;;;;;;;4.68;2.83;;;22.20;99.90;;;;;;5053758;28;20033;-60
2023/09/16 09:38:44;;;;;;;3.10;2.80;;;22.20;99.90;;;;;;5053694;28;20576;-60
2023/09/16 09:41:10;;;;;;;5.38;2.83;;;22.20;99.90;;;;;;5054067;28;20056;-61
2023/09/16 09:43:36;;;;;;;4.50;3.10;;;22.20;99.90;;;;;;5053735;28;20013;-60
2023/09/16 09:46:02;;;;;;;4.32;2.95;;;22.30;99.90;;;;;;5052309;28;20037;-60
2023/09/16 09:48:30;;;;;;;4.00;2.90;;;22.30;99.90;;;;;;5053692;28;20043;-60
2023/09/16 09:50:55;;;;;;;3.40;3.10;;;22.40;99.90;;;;;;5053463;28;20512;-61
2023/09/16 09:53:26;;;;;;;4.03;2.83;;;22.50;99.90;;;;;;5053430;28;20021;-61
2023/09/16 09:55:53;;;;;;;4.28;2.70;;;22.60;99.90;;;;;;5053529;28;20029;-60
2023/09/16 09:58:19;;;;;;;4.10;2.60;;;22.70;99.90;;;;;;5053346;28;20478;-60
2023/09/16 10:00:49;;;;;;;3.58;2.65;;;22.70;99.90;;;;;;5053408;28;20147;-61
2023/09/16 10:03:17;;;;;;;5.25;2.97;;;22.80;99.90;;;;;;5053170;28;20111;-60
2023/09/16 10:05:43;;;;;;;4.35;2.60;;;22.90;99.90;;;;;;5052892;28;20033;-60
2023/09/16 10:08:10;;;;;;;4.25;2.50;;;23.10;99.90;;;;;;5053418;28;20179;-60
2023/09/16 10:10:36;;;;;;;4.38;2.50;;;23.20;99.90;;;;;;5053229;28;20029;-60
2023/09/16 10:13:02;;;;;;;4.72;2.67;;;23.40;99.90;;;;;;5053123;28;20040;-61
2023/09/16 10:15:39;;;;;;;2.70;2.50;;;23.60;99.90;;;;;;5053467;28;20025;-60
2023/09/16 10:18:06;;;;;;;2.65;2.42;;;23.80;99.90;;;;;;5053323;28;20033;-60
2023/09/16 10:20:37;;;;;;;3.03;2.60;;;24.00;99.90;;;;;;5052527;28;20498;-60
2023/09/16 10:23:03;;;;;;;4.10;2.40;;;24.00;99.90;;;;;;5052760;28;20033;-60
2023/09/16 10:25:29;;;;;;;3.15;2.50;;;24.10;99.90;;;;;;5052926;28;20032;-61
2023/09/16 10:28:01;;;;;;;2.60;2.35;;;24.20;99.90;;;;;;5052227;28;20056;-60
2023/09/16 10:30:30;;;;;;;3.10;2.45;;;24.40;99.90;;;;;;5052545;28;20463;-59
2023/09/16 10:33:00;;;;;;;3.53;2.53;;;24.50;99.90;;;;;;5052638;28;20033;-60
2023/09/16 10:35:30;;;;;;;3.20;2.50;;;24.60;99.90;;;;;;5052272;28;20465;-61
2023/09/16 10:37:59;;;;;;;3.33;2.42;;;24.80;99.90;;;;;;5053104;28;20044;-61
2023/09/16 10:40:25;;;;;;;3.22;2.42;;;24.90;99.90;;;;;;5052569;28;20529;-61
2023/09/16 10:42:53;;;;;;;3.97;2.42;;;25.00;99.90;;;;;;5052522;28;20048;-61
2023/09/16 10:45:19;;;;;;;4.95;2.55;;;25.00;99.90;;;;;;5052645;28;20028;-61
2023/09/16 10:47:46;;;;;;;4.15;2.20;;;24.90;99.90;;;;;;5052427;28;20367;-60
2023/09/16 10:50:12;;;;;;;4.32;2.42;;;24.90;99.90;;;;;;5051925;28;20028;-61
2023/09/16 10:52:45;;;;;;;3.88;2.17;;;25.00;99.90;;;;;;5052351;28;20039;-60
2023/09/16 10:55:43;;;;;;;3.70;2.15;;;25.00;99.90;;;;;;5052330;28;20009;-60
2023/09/16 10:58:19;;;;;;;3.05;2.10;;;24.90;99.90;;;;;;5052294;28;20455;-59
2023/09/16 11:00:53;;;;;;;4.43;2.40;;;24.80;99.90;;;;;;5052327;28;20401;-61
2023/09/16 11:03:23;;;;;;;3.53;2.78;;;24.70;99.90;;;;;;5051705;28;20042;-60
2023/09/16 11:05:48;;;;;;;4.05;2.20;;;24.70;99.90;;;;;;5052053;28;20393;-61
2023/09/16 11:08:15;;;;;;;2.67;2.30;;;24.80;99.90;;;;;;5052012;28;20112;-60
2023/09/16 11:10:40;;;;;;;3.55;2.50;;;24.90;99.90;;;;;;5052140;28;20044;-61
2023/09/16 11:13:07;;;;;;;3.80;2.28;;;25.20;99.90;;;;;;5052058;28;20029;-61
2023/09/16 11:15:34;;;;;;;3.58;2.35;;;25.30;99.90;;;;;;5052182;28;20032;-60
2023/09/16 11:18:04;;;;;;;4.30;2.20;;;25.40;99.90;;;;;;5051615;28;20438;-60
2023/09/16 11:20:33;;;;;;;2.58;2.20;;;25.50;99.90;;;;;;5051648;28;20023;-61
2023/09/16 11:23:03;;;;;;;3.17;2.00;;;25.50;99.90;;;;;;5051680;28;20021;-61
2023/09/16 11:25:34;;;;;;;3.13;2.00;;;25.70;99.90;;;;;;5051642;28;20086;-60
2023/09/16 11:28:10;;;;;;;3.10;1.95;;;25.70;99.90;;;;;;5051683;28;20084;-61
2023/09/16 11:30:38;;;;;;;3.40;1.95;;;25.90;99.90;;;;;;5051669;28;20024;-61
2023/09/16 11:33:04;;;;;;;4.47;1.83;;;25.90;99.90;;;;;;5049941;28;20037;-60
2023/09/16 11:35:31;;;;;;;3.20;1.88;;;26.00;99.90;;;;;;5051918;28;20036;-60
2023/09/16 11:37:58;;;;;;;3.70;2.00;;;26.10;99.90;;;;;;5051513;28;20028;-60
2023/09/16 11:40:32;;;;;;;3.92;1.85;;;26.30;99.90;;;;;;5051711;28;20505;-60
2023/09/16 11:42:59;;;;;;;4.10;2.30;;;26.60;99.90;;;;;;5051426;28;20379;-60
2023/09/16 11:45:27;;;;;;;4.03;1.95;;;26.80;99.90;;;;;;5051221;28;20043;-60
2023/09/16 11:47:53;;;;;;;5.80;1.88;;;26.80;99.90;;;;;;5051341;28;20020;-60
2023/09/16 11:50:26;;;;;;;3.75;1.95;;;26.90;99.90;;;;;;5051336;28;20401;-60
2023/09/16 11:52:52;;;;;;;2.55;1.90;;;26.90;99.90;;;;;;5051468;28;20579;-60
2023/09/16 11:55:19;;;;;;;2.55;1.70;;;26.80;99.90;;;;;;5051403;28;20040;-60
2023/09/16 11:57:46;;;;;;;3.58;1.80;;;26.90;99.90;;;;;;5051350;28;20025;-59
2023/09/16 12:00:12;;;;;;;4.28;1.90;;;26.90;99.90;;;;;;5051229;28;20084;-60
2023/09/16 12:02:40;;;;;;;2.00;1.80;;;27.00;99.90;;;;;;5050860;28;20027;-60
2023/09/16 12:05:06;;;;;;;2.67;1.80;;;27.00;99.90;;;;;;5051089;28;20025;-59
2023/09/16 12:07:34;;;;;;;3.92;1.80;;;27.00;99.90;;;;;;5051460;28;20048;-60
2023/09/16 12:10:01;;;;;;;4.20;1.98;;;27.10;99.90;;;;;;5051334;28;20071;-60
2023/09/16 12:12:28;;;;;;;3.20;2.10;;;27.30;99.90;;;;;;5051059;28;20033;-60
2023/09/16 12:14:55;;;;;;;3.85;1.90;;;27.20;99.90;;;;;;5051268;28;20029;-60
2023/09/16 12:17:23;;;;;;;3.72;2.10;;;27.20;99.90;;;;;;5050740;28;20056;-59
2023/09/16 12:19:53;;;;;;;4.55;2.22;;;27.20;99.90;;;;;;5051331;28;20017;-60
2023/09/16 12:22:20;;;;;;;4.75;3.00;;;27.30;99.90;;;;;;5051016;28;20485;-60
2023/09/16 12:24:46;;;;;;;3.15;2.50;;;27.30;99.90;;;;;;5050991;28;20033;-60
2023/09/16 12:27:13;;;;;;;4.25;2.17;;;27.30;99.90;;;;;;5050925;28;20037;-60
2023/09/16 12:29:39;;;;;;;4.97;2.38;;;27.40;99.90;;;;;;5051075;28;20432;-60
2023/09/16 12:32:13;;;;;;;2.67;1.90;;;27.40;99.90;;;;;;5050750;28;20079;-60
2023/09/16 12:34:39;;;;;;;3.78;2.00;;;27.70;99.90;;;;;;5051007;28;20021;-59
2023/09/16 12:37:05;;;;;;;3.92;1.90;;;27.70;99.90;;;;;;5051065;28;20441;-60
2023/09/16 12:39:35;;;;;;;2.70;1.95;;;27.80;99.90;;;;;;5050879;28;20150;-60
2023/09/16 12:42:03;;;;;;;4.90;3.05;;;27.70;99.90;;;;;;5050886;28;20017;-60
2023/09/16 12:44:30;;;;;;;6.15;4.85;;;27.80;99.90;;;;;;5051189;28;20496;-60
2023/09/16 12:46:57;;;;;;;6.18;3.10;;;27.90;99.90;;;;;;5050408;28;20029;-60